Time;durP1;ratioP1;P1;durP2;ratioP2;P2;SDS_P1;SDS_P2;PMS_P1;PMS_P2;Temp;Humidity;BMP_temperature;BMP_pressure;BME280_temperature;BME280_humidity;BME280_pressure;Samples;Min_cycle;Max_cycle;Signal;HPM_P1;HPM_P2
2023/06/05 00:01:37;;;;;;;5.88;5.35;;;19.10;45.60;;;;;;5036952;28;20191;-86
2023/06/05 00:04:03;;;;;;;5.80;5.40;;;19.10;45.80;;;;;;5040348;28;20169;-87
2023/06/05 00:06:30;;;;;;;5.13;4.82;;;19.10;45.90;;;;;;5037326;28;20213;-88
2023/06/05 00:08:56;;;;;;;6.53;5.53;;;19.10;46.40;;;;;;5035353;28;20197;-88
2023/06/05 00:11:21;;;;;;;6.22;5.82;;;19.10;46.10;;;;;;5035495;28;20247;-85
2023/06/05 00:13:47;;;;;;;5.80;5.40;;;19.20;45.60;;;;;;5035623;28;20586;-86
2023/06/05 00:16:13;;;;;;;6.40;5.90;;;19.00;45.50;;;;;;5035443;28;20197;-87
2023/06/05 00:18:39;;;;;;;5.60;5.10;;;19.00;46.20;;;;;;5016803;28;20216;-87
2023/06/05 00:21:04;;;;;;;6.43;5.93;;;19.00;45.70;;;;;;5035586;28;20181;-87
2023/06/05 00:23:30;;;;;;;5.72;5.32;;;19.00;45.30;;;;;;5036830;28;20177;-87
2023/06/05 00:25:57;;;;;;;6.22;5.82;;;18.90;45.90;;;;;;5037341;28;20203;-86
2023/06/05 00:28:24;;;;;;;5.72;5.30;;;19.00;46.30;;;;;;5036689;28;20612;-87
2023/06/05 00:30:49;;;;;;;6.28;5.88;;;19.00;46.60;;;;;;5036387;28;20207;-86
2023/06/05 00:33:15;;;;;;;6.32;5.78;;;19.00;45.60;;;;;;5038502;28;20539;-86
2023/06/05 00:35:41;;;;;;;6.00;5.50;;;18.70;46.50;;;;;;5037447;28;20181;-87
2023/06/05 00:38:06;;;;;;;6.55;5.95;;;18.70;46.20;;;;;;5037653;28;20188;-87
2023/06/05 00:40:32;;;;;;;6.40;5.90;;;18.70;44.20;;;;;;5037787;28;20189;-87
2023/06/05 00:42:58;;;;;;;6.20;5.70;;;18.70;46.80;;;;;;5038491;28;20180;-88
2023/06/05 00:45:24;;;;;;;6.05;5.55;;;18.70;47.60;;;;;;5036758;28;20187;-88
2023/06/05 00:47:49;;;;;;;6.18;5.68;;;18.70;47.00;;;;;;5035358;28;20208;-86
2023/06/05 00:50:17;;;;;;;6.22;5.72;;;18.70;46.30;;;;;;5035811;28;20223;-86
2023/06/05 00:52:43;;;;;;;6.22;5.72;;;18.80;44.50;;;;;;5036064;28;20212;-87
2023/06/05 00:55:10;;;;;;;6.22;5.72;;;18.80;45.30;;;;;;5035944;28;20264;-88
2023/06/05 00:57:38;;;;;;;7.47;5.90;;;18.80;44.50;;;;;;5035800;28;20193;-87
2023/06/05 01:00:07;;;;;;;5.75;5.35;;;18.70;45.50;;;;;;5036533;28;20188;-86
2023/06/05 01:02:34;;;;;;;5.88;5.50;;;18.70;43.90;;;;;;5018751;28;20188;-88
2023/06/05 01:05:00;;;;;;;5.70;5.35;;;18.80;43.50;;;;;;5017067;28;20231;-86
2023/06/05 01:07:27;;;;;;;5.50;5.00;;;18.80;44.50;;;;;;5014831;28;20210;-86
2023/06/05 01:09:54;;;;;;;5.57;5.03;;;18.90;44.30;;;;;;5014548;28;20566;-87
2023/06/05 01:12:30;;;;;;;6.00;5.40;;;18.80;42.60;;;;;;5017970;28;20181;-87
2023/06/05 01:14:58;;;;;;;5.40;5.00;;;18.60;44.50;;;;;;5035760;28;20250;-87
2023/06/05 01:17:29;;;;;;;5.30;4.90;;;18.50;43.70;;;;;;5035084;28;20216;-89
2023/06/05 01:19:55;;;;;;;5.53;5.13;;;18.70;45.30;;;;;;5035914;28;20203;-87
2023/06/05 01:22:21;;;;;;;5.65;5.18;;;18.70;44.10;;;;;;5035562;28;20193;-87
2023/06/05 01:24:47;;;;;;;6.50;5.32;;;18.60;44.30;;;;;;5036684;28;20180;-87
2023/06/05 01:27:26;;;;;;;5.32;4.93;;;18.60;42.90;;;;;;5035897;28;20196;-87
2023/06/05 01:30:29;;;;;;;5.07;4.57;;;18.70;42.00;;;;;;5036163;28;20184;-89
2023/06/05 01:33:05;;;;;;;5.65;5.20;;;18.60;42.00;;;;;;5034696;28;20185;-88
2023/06/05 01:35:33;;;;;;;5.50;5.10;;;18.50;41.60;;;;;;5034835;28;20698;-87
2023/06/05 01:38:02;;;;;;;5.63;5.13;;;18.40;41.60;;;;;;5035010;28;20194;-86
2023/06/05 01:40:30;;;;;;;5.10;4.70;;;18.50;41.40;;;;;;5036219;28;20245;-85
2023/06/05 01:42:57;;;;;;;5.40;4.97;;;18.60;41.20;;;;;;5040313;28;20184;-86
2023/06/05 01:45:23;;;;;;;5.88;5.32;;;18.80;40.90;;;;;;5041863;28;20718;-87
2023/06/05 01:47:50;;;;;;;4.78;4.47;;;18.80;40.80;;;;;;5042439;28;20254;-88
2023/06/05 01:50:17;;;;;;;5.45;4.88;;;18.70;40.90;;;;;;5039957;28;20231;-87
2023/06/05 01:52:44;;;;;;;5.70;5.10;;;18.80;40.80;;;;;;5041381;28;20271;-85
2023/06/05 01:55:19;;;;;;;5.65;5.20;;;18.70;41.10;;;;;;5043404;28;20177;-87
2023/06/05 01:57:45;;;;;;;5.28;4.88;;;18.80;41.20;;;;;;5042979;28;20291;-87
2023/06/05 02:00:13;;;;;;;5.25;4.88;;;18.80;41.30;;;;;;5040691;28;20244;-89
2023/06/05 02:02:47;;;;;;;5.50;5.10;;;18.80;41.30;;;;;;5039165;28;20184;-86
2023/06/05 02:05:14;;;;;;;5.82;5.30;;;18.90;41.10;;;;;;5038185;28;20184;-86
2023/06/05 02:07:53;;;;;;;15.10;6.47;;;18.80;41.70;;;;;;5037826;28;20201;-87
2023/06/05 02:10:19;;;;;;;5.32;4.93;;;18.90;42.30;;;;;;5037347;28;20177;-88
2023/06/05 02:12:46;;;;;;;5.60;5.20;;;19.00;42.50;;;;;;5037438;28;20176;-85
2023/06/05 02:15:13;;;;;;;5.55;5.22;;;18.90;42.70;;;;;;5038427;28;20209;-87
2023/06/05 02:17:44;;;;;;;5.10;4.72;;;18.90;42.60;;;;;;5039305;28;20425;-87
2023/06/05 02:20:12;;;;;;;5.43;5.05;;;18.90;43.10;;;;;;5038834;28;20173;-86
2023/06/05 02:22:38;;;;;;;5.10;4.80;;;18.80;44.20;;;;;;5021027;28;20185;-86
2023/06/05 02:25:05;;;;;;;5.55;5.15;;;18.70;44.30;;;;;;5039161;28;20183;-86
2023/06/05 02:27:30;;;;;;;6.70;5.45;;;18.70;44.70;;;;;;5038686;28;20308;-89
2023/06/05 02:29:56;;;;;;;5.70;5.30;;;18.60;46.50;;;;;;5037805;28;20670;-86
2023/06/05 02:32:26;;;;;;;7.78;5.32;;;18.60;45.90;;;;;;5036824;28;20208;-87
2023/06/05 02:34:52;;;;;;;4.85;4.55;;;18.60;44.10;;;;;;5038975;28;20205;-87
2023/06/05 02:37:18;;;;;;;5.28;4.82;;;18.60;43.70;;;;;;5042376;28;20193;-87
2023/06/05 02:39:45;;;;;;;5.05;4.75;;;18.50;44.40;;;;;;5038687;28;20169;-87
2023/06/05 02:42:12;;;;;;;5.18;4.78;;;18.40;45.50;;;;;;5037999;28;20171;-86
2023/06/05 02:44:38;;;;;;;5.30;4.80;;;18.30;46.40;;;;;;5038399;28;20690;-88
2023/06/05 02:47:04;;;;;;;5.00;4.70;;;18.10;47.10;;;;;;5020657;28;20205;-86
2023/06/05 02:49:29;;;;;;;5.03;4.63;;;18.00;46.80;;;;;;5039600;28;20200;-87
2023/06/05 02:51:55;;;;;;;5.00;4.60;;;18.10;46.00;;;;;;5038644;28;20535;-87
2023/06/05 02:54:21;;;;;;;5.30;4.90;;;18.10;46.20;;;;;;5039505;28;20188;-87
2023/06/05 02:56:47;;;;;;;4.88;4.47;;;18.10;45.70;;;;;;5038685;28;20308;-87
2023/06/05 02:59:14;;;;;;;5.28;4.88;;;18.20;45.90;;;;;;5039684;28;20373;-87
2023/06/05 03:01:43;;;;;;;5.10;4.70;;;18.20;45.50;;;;;;5035779;28;20711;-87
2023/06/05 03:04:09;;;;;;;8.15;4.82;;;18.10;45.70;;;;;;5038015;28;20316;-88
2023/06/05 03:06:35;;;;;;;5.32;4.88;;;18.10;46.20;;;;;;5019003;28;20235;-87
2023/06/05 03:09:01;;;;;;;4.88;4.57;;;18.00;46.60;;;;;;5022836;28;20197;-88
2023/06/05 03:11:26;;;;;;;5.03;4.72;;;18.00;46.10;;;;;;5018295;28;20190;-88
2023/06/05 03:13:53;;;;;;;5.68;5.28;;;17.90;46.30;;;;;;5036355;28;20248;-87
2023/06/05 03:16:19;;;;;;;4.93;4.57;;;17.90;46.10;;;;;;5043787;28;20293;-87
2023/06/05 03:18:45;;;;;;;5.10;4.70;;;17.90;47.00;;;;;;5045037;28;20184;-86
2023/06/05 03:21:11;;;;;;;4.93;4.53;;;17.80;47.30;;;;;;5044991;28;20266;-87
2023/06/05 03:23:37;;;;;;;5.63;5.13;;;17.70;46.90;;;;;;5039733;28;20292;-87
2023/06/05 03:26:03;;;;;;;5.40;5.03;;;17.70;46.00;;;;;;5039104;28;20428;-87
2023/06/05 03:28:30;;;;;;;8.40;7.78;;;17.50;47.00;;;;;;5037983;28;20204;-87
2023/06/05 03:30:56;;;;;;;5.32;4.93;;;17.50;47.60;;;;;;5038203;28;20567;-88
2023/06/05 03:33:21;;;;;;;5.45;5.03;;;17.50;47.40;;;;;;5039359;28;20204;-87
2023/06/05 03:35:47;;;;;;;5.85;5.35;;;17.40;46.90;;;;;;5038015;28;20191;-88
2023/06/05 03:38:13;;;;;;;5.32;4.93;;;17.40;46.30;;;;;;5035410;28;20174;-86
2023/06/05 03:40:39;;;;;;;4.70;4.30;;;17.40;46.70;;;;;;5036520;28;20181;-86
2023/06/05 03:43:05;;;;;;;5.70;5.00;;;17.20;47.90;;;;;;5026448;28;20198;-87
2023/06/05 03:45:31;;;;;;;5.00;4.47;;;17.20;48.50;;;;;;5030404;28;20252;-86
2023/06/05 03:47:59;;;;;;;4.70;4.18;;;17.20;47.70;;;;;;5037696;28;20210;-87
2023/06/05 03:50:28;;;;;;;4.78;4.25;;;17.30;48.40;;;;;;5037455;28;20182;-87
2023/06/05 03:53:02;;;;;;;4.82;4.45;;;17.20;48.10;;;;;;5037961;28;20182;-88
2023/06/05 03:55:41;;;;;;;4.53;4.13;;;17.30;47.30;;;;;;5036994;28;20161;-86
2023/06/05 03:58:13;;;;;;;7.80;5.28;;;17.20;47.90;;;;;;5036930;28;20292;-88
2023/06/05 04:00:44;;;;;;;5.75;4.28;;;17.20;48.10;;;;;;5035997;28;20225;-86
2023/06/05 04:03:10;;;;;;;5.20;4.72;;;17.20;47.20;;;;;;5035756;28;20201;-87
2023/06/05 04:05:39;;;;;;;4.22;3.92;;;17.20;47.40;;;;;;5016935;28;20186;-87
2023/06/05 04:08:09;;;;;;;4.82;4.30;;;17.30;46.50;;;;;;5034770;28;20264;-86
2023/06/05 04:10:35;;;;;;;4.63;4.33;;;17.20;46.50;;;;;;5036110;28;20197;-87
2023/06/05 04:13:01;;;;;;;7.28;4.53;;;17.10;46.00;;;;;;5038738;28;20214;-89
2023/06/05 04:15:27;;;;;;;4.35;4.00;;;17.00;47.90;;;;;;5034766;28;20189;-87
2023/06/05 04:17:53;;;;;;;4.37;4.00;;;17.00;47.00;;;;;;5017490;28;20212;-87
2023/06/05 04:20:18;;;;;;;4.70;4.30;;;16.90;47.30;;;;;;5035745;28;20180;-87
2023/06/05 04:22:45;;;;;;;4.77;4.37;;;16.80;47.00;;;;;;5036163;28;20188;-86
2023/06/05 04:25:14;;;;;;;7.93;4.03;;;16.80;47.50;;;;;;5037295;28;20181;-86
2023/06/05 04:27:42;;;;;;;9.53;4.60;;;16.90;47.20;;;;;;5036690;28;20614;-86
2023/06/05 04:30:09;;;;;;;5.80;4.37;;;16.80;47.00;;;;;;5036007;28;20597;-88
2023/06/05 04:32:38;;;;;;;5.17;4.60;;;16.70;47.30;;;;;;5035492;28;20177;-88
2023/06/05 04:35:08;;;;;;;9.53;4.40;;;16.70;47.30;;;;;;5037027;28;20235;-86
2023/06/05 04:37:35;;;;;;;22.67;6.40;;;16.70;47.70;;;;;;5036118;28;20207;-86
2023/06/05 04:40:05;;;;;;;4.77;3.73;;;16.50;48.00;;;;;;5018986;28;20173;-86
2023/06/05 04:42:34;;;;;;;9.97;5.00;;;16.60;47.20;;;;;;5039411;28;20189;-86
2023/06/05 04:45:11;;;;;;;4.83;4.30;;;16.70;47.90;;;;;;5019101;28;20177;-87
2023/06/05 04:47:36;;;;;;;3.83;3.53;;;16.70;48.10;;;;;;5043437;28;20200;-88
2023/06/05 04:50:05;;;;;;;4.83;3.83;;;16.60;47.60;;;;;;5049408;28;20190;-79
2023/06/05 04:52:35;;;;;;;3.97;3.67;;;16.70;48.10;;;;;;5044286;28;20168;-87
2023/06/05 04:55:03;;;;;;;3.87;3.57;;;16.80;47.10;;;;;;5044639;28;20177;-86
2023/06/05 04:57:30;;;;;;;4.00;3.70;;;16.80;46.90;;;;;;5044005;28;20192;-91
2023/06/05 04:59:58;;;;;;;5.47;4.07;;;16.80;47.20;;;;;;5035337;28;20700;-87
2023/06/05 05:02:24;;;;;;;4.87;3.97;;;16.90;47.20;;;;;;5043193;28;20269;-87
2023/06/05 05:04:50;;;;;;;5.70;3.93;;;16.80;46.90;;;;;;5044246;28;20267;-87
2023/06/05 05:07:16;;;;;;;4.60;4.07;;;16.70;47.50;;;;;;5045001;28;20239;-88
2023/06/05 05:09:45;;;;;;;4.60;4.20;;;16.70;47.30;;;;;;5050291;28;20252;-86
2023/06/05 05:12:11;;;;;;;7.37;3.93;;;16.70;47.80;;;;;;5047808;28;20198;-88
2023/06/05 05:14:38;;;;;;;5.33;4.20;;;16.70;47.50;;;;;;5037084;28;20178;-88
2023/06/05 05:17:04;;;;;;;7.33;3.90;;;16.70;47.50;;;;;;5038499;28;20210;-86
2023/06/05 05:19:29;;;;;;;4.60;4.20;;;16.70;47.10;;;;;;5059540;28;20188;-86
2023/06/05 05:21:55;;;;;;;4.73;4.10;;;16.90;46.90;;;;;;5055114;28;20216;-86
2023/06/05 05:24:22;;;;;;;4.97;4.57;;;16.90;46.90;;;;;;5023989;28;20199;-86
2023/06/05 05:26:47;;;;;;;6.13;4.67;;;17.00;47.10;;;;;;5020386;28;20205;-87
2023/06/05 05:29:13;;;;;;;4.50;4.10;;;17.00;46.70;;;;;;5029575;28;20209;-86
2023/06/05 05:31:39;;;;;;;4.60;4.20;;;17.00;47.10;;;;;;5044865;28;20196;-88
2023/06/05 05:34:05;;;;;;;4.90;4.50;;;17.00;47.10;;;;;;5037232;28;20205;-87
2023/06/05 05:36:33;;;;;;;5.27;4.17;;;17.10;47.10;;;;;;5039057;28;20469;-87
2023/06/05 05:38:58;;;;;;;5.50;4.50;;;17.20;47.30;;;;;;5037042;28;20181;-85
2023/06/05 05:41:24;;;;;;;4.80;4.40;;;17.20;47.20;;;;;;5041829;28;20211;-90
2023/06/05 05:43:50;;;;;;;4.87;4.40;;;17.10;47.50;;;;;;5047454;28;20244;-87
2023/06/05 05:46:15;;;;;;;6.40;4.10;;;17.00;47.10;;;;;;5043464;28;20206;-87
2023/06/05 05:48:41;;;;;;;5.60;4.20;;;17.10;47.30;;;;;;5040805;28;20272;-87
2023/06/05 05:51:07;;;;;;;4.73;4.30;;;17.10;47.50;;;;;;5038823;28;20183;-88
2023/06/05 05:53:33;;;;;;;5.17;4.70;;;17.20;47.50;;;;;;5039728;28;20177;-86
2023/06/05 05:56:00;;;;;;;8.77;8.10;;;17.30;47.20;;;;;;5039699;28;20187;-86
2023/06/05 05:58:26;;;;;;;8.40;4.73;;;17.50;47.30;;;;;;5040518;28;20173;-90
2023/06/05 06:00:52;;;;;;;5.03;4.40;;;17.60;47.10;;;;;;5037946;28;20771;-86
2023/06/05 06:03:18;;;;;;;5.87;4.10;;;17.80;45.90;;;;;;5039339;28;20199;-86
2023/06/05 06:05:44;;;;;;;6.53;4.57;;;17.90;45.30;;;;;;5024670;28;20200;-84
2023/06/05 06:08:10;;;;;;;9.20;4.83;;;18.00;44.60;;;;;;5027086;28;20208;-89
2023/06/05 06:10:36;;;;;;;5.67;5.10;;;18.10;44.20;;;;;;5026426;28;20189;-86
2023/06/05 06:13:02;;;;;;;14.93;5.80;;;18.00;44.50;;;;;;5045758;28;20184;-88
2023/06/05 06:15:28;;;;;;;6.27;4.40;;;18.10;43.80;;;;;;5061595;28;20199;-87
2023/06/05 06:17:53;;;;;;;7.50;4.83;;;18.10;44.10;;;;;;5043588;28;20241;-87
2023/06/05 06:20:19;;;;;;;5.32;4.28;;;18.20;43.60;;;;;;5043158;28;20687;-87
2023/06/05 06:22:45;;;;;;;5.70;4.10;;;18.30;42.60;;;;;;5040941;28;20187;-88
2023/06/05 06:25:11;;;;;;;5.00;4.60;;;18.40;42.50;;;;;;5039016;28;20206;-89
2023/06/05 06:27:38;;;;;;;4.70;4.30;;;18.40;42.20;;;;;;5039120;28;20299;-86
2023/06/05 06:30:07;;;;;;;6.88;4.72;;;18.40;41.70;;;;;;5040092;28;20206;-87
2023/06/05 06:32:32;;;;;;;4.63;4.13;;;18.50;42.30;;;;;;5032731;28;20258;-89
2023/06/05 06:34:59;;;;;;;13.23;5.20;;;18.40;42.20;;;;;;5041275;28;20308;-87
2023/06/05 06:37:25;;;;;;;9.18;4.80;;;18.50;42.50;;;;;;5039815;28;20260;-89
2023/06/05 06:39:50;;;;;;;8.07;4.47;;;18.50;43.20;;;;;;5040585;28;20207;-88
2023/06/05 06:42:16;;;;;;;4.73;4.20;;;18.60;42.70;;;;;;5039596;28;20190;-87
2023/06/05 06:44:42;;;;;;;6.25;4.60;;;18.50;42.90;;;;;;5040274;28;20182;-90
2023/06/05 06:47:10;;;;;;;4.68;4.28;;;18.70;43.30;;;;;;5020803;28;20212;-89
2023/06/05 06:49:36;;;;;;;4.88;4.50;;;18.80;42.60;;;;;;5038370;28;20210;-89
2023/06/05 06:52:02;;;;;;;5.03;4.53;;;18.80;42.10;;;;;;5036416;28;20179;-89
2023/06/05 06:54:28;;;;;;;5.25;4.82;;;19.00;42.60;;;;;;5038495;28;20294;-86
2023/06/05 06:56:57;;;;;;;5.10;4.70;;;19.00;42.40;;;;;;5042508;28;20727;-90
2023/06/05 06:59:23;;;;;;;4.93;4.53;;;18.90;42.40;;;;;;5041953;28;20214;-88
2023/06/05 07:02:09;;;;;;;5.22;4.45;;;18.80;42.90;;;;;;5036807;28;20196;-89
2023/06/05 07:04:35;;;;;;;4.80;4.50;;;19.00;42.00;;;;;;5037517;28;20525;-87
2023/06/05 07:07:01;;;;;;;7.63;5.07;;;19.10;42.30;;;;;;5036520;28;20219;-88
2023/06/05 07:09:27;;;;;;;8.27;5.05;;;19.20;42.10;;;;;;5036686;28;20219;-88
2023/06/05 07:11:54;;;;;;;12.13;4.90;;;19.10;42.00;;;;;;5050680;28;20178;-90
2023/06/05 07:14:20;;;;;;;5.97;5.28;;;19.00;42.30;;;;;;5033640;28;20222;-89
2023/06/05 07:16:45;;;;;;;5.20;4.68;;;19.30;42.10;;;;;;5036942;28;20560;-89
2023/06/05 07:19:13;;;;;;;5.43;4.80;;;19.50;41.00;;;;;;5033766;28;20188;-88
2023/06/05 07:21:38;;;;;;;4.60;4.20;;;19.70;40.90;;;;;;5033438;28;20261;-88
2023/06/05 07:24:05;;;;;;;8.98;5.53;;;19.90;40.80;;;;;;5035756;28;20181;-89
2023/06/05 07:26:32;;;;;;;8.80;6.05;;;20.10;40.10;;;;;;5035076;28;20225;-89
2023/06/05 07:28:57;;;;;;;8.50;5.95;;;20.30;40.00;;;;;;5036717;28;20577;-86
2023/06/05 07:31:23;;;;;;;8.70;5.50;;;20.30;38.70;;;;;;5042845;28;20183;-89
2023/06/05 07:33:48;;;;;;;22.40;7.80;;;20.40;39.20;;;;;;5042081;28;20200;-88
2023/06/05 07:36:14;;;;;;;6.07;5.47;;;20.50;38.80;;;;;;5037820;28;20192;-89
2023/06/05 07:38:40;;;;;;;8.55;5.25;;;20.60;39.40;;;;;;5039401;28;20173;-88
2023/06/05 07:41:08;;;;;;;8.65;5.50;;;20.70;38.60;;;;;;5020646;28;20823;-88
2023/06/05 07:43:34;;;;;;;5.47;4.95;;;20.60;38.30;;;;;;5037625;28;20204;-87
2023/06/05 07:46:00;;;;;;;28.23;8.75;;;20.50;38.40;;;;;;5038020;28;20554;-88
2023/06/05 07:48:25;;;;;;;33.78;10.05;;;20.60;38.30;;;;;;5037904;28;20213;-88
2023/06/05 07:50:51;;;;;;;15.77;5.97;;;20.60;38.40;;;;;;5037499;28;20196;-88
2023/06/05 07:53:17;;;;;;;11.52;6.20;;;20.80;37.90;;;;;;5037679;28;20288;-88
2023/06/05 07:55:43;;;;;;;16.73;7.88;;;20.70;37.70;;;;;;5037073;28;20200;-87
2023/06/05 07:58:11;;;;;;;25.63;7.90;;;20.80;38.00;;;;;;5037963;28;20671;-90
2023/06/05 08:00:37;;;;;;;47.00;13.27;;;21.00;37.90;;;;;;5042349;28;20674;-89
2023/06/05 08:03:03;;;;;;;67.82;16.02;;;21.20;38.00;;;;;;5042881;28;20209;-90
2023/06/05 08:05:28;;;;;;;146.85;30.77;;;21.30;37.30;;;;;;5042119;28;20193;-92
2023/06/05 08:07:54;;;;;;;23.95;7.75;;;21.40;37.80;;;;;;5037420;28;20225;-89
2023/06/05 08:10:20;;;;;;;110.90;22.95;;;21.60;36.20;;;;;;5037602;28;20619;-88
2023/06/05 08:12:45;;;;;;;81.75;20.52;;;21.40;36.80;;;;;;5019002;28;20266;-89
2023/06/05 08:15:11;;;;;;;21.63;9.32;;;21.60;36.50;;;;;;5034873;28;20218;-88
2023/06/05 08:17:36;;;;;;;75.45;16.38;;;21.70;36.40;;;;;;5035629;28;20710;-89
2023/06/05 08:20:05;;;;;;;25.83;10.32;;;21.90;36.30;;;;;;5033771;28;20552;-88
2023/06/05 08:22:30;;;;;;;8.55;7.82;;;22.20;35.50;;;;;;5034489;28;20255;-88
2023/06/05 08:24:59;;;;;;;140.98;31.02;;;22.40;35.20;;;;;;5036109;28;20243;-89
2023/06/05 08:27:24;;;;;;;51.67;15.73;;;22.60;35.90;;;;;;5040084;28;20603;-89
2023/06/05 08:29:51;;;;;;;15.95;10.68;;;22.60;35.90;;;;;;5040440;28;20223;-89
2023/06/05 08:32:18;;;;;;;11.80;9.57;;;22.70;35.30;;;;;;5040551;28;20199;-91
2023/06/05 08:34:44;;;;;;;8.57;8.10;;;22.60;35.10;;;;;;5042436;28;20177;-90
2023/06/05 08:37:11;;;;;;;9.27;8.35;;;22.50;35.90;;;;;;5042533;28;20215;-90
2023/06/05 08:39:36;;;;;;;9.43;8.52;;;22.40;35.20;;;;;;5042281;28;20233;-90
2023/06/05 08:42:03;;;;;;;17.73;9.43;;;22.50;35.60;;;;;;5039963;28;20262;-93
2023/06/05 08:44:30;;;;;;;34.55;11.48;;;22.50;35.60;;;;;;5039979;28;20192;-89
2023/06/05 08:47:00;;;;;;;106.00;24.52;;;22.50;35.50;;;;;;5038917;28;20207;-89
2023/06/05 08:49:36;;;;;;;58.80;15.55;;;22.60;34.90;;;;;;5021313;28;20520;-90
2023/06/05 08:52:09;;;;;;;27.42;12.40;;;23.00;34.70;;;;;;5020415;28;20219;-82
2023/06/05 08:54:39;;;;;;;9.10;8.25;;;23.10;34.30;;;;;;5039460;28;20184;-91
2023/06/05 08:57:08;;;;;;;123.43;29.52;;;23.40;34.20;;;;;;5039624;28;20254;-91
2023/06/05 08:59:34;;;;;;;12.38;11.07;;;23.50;34.20;;;;;;5039588;28;20675;-90
2023/06/05 09:02:00;;;;;;;11.90;10.85;;;23.80;33.20;;;;;;5040458;28;20368;-90
2023/06/05 09:04:29;;;;;;;11.25;10.55;;;23.90;33.00;;;;;;5042613;28;20226;-89
2023/06/05 09:06:56;;;;;;;28.70;14.70;;;24.10;33.20;;;;;;5043378;28;20792;-91
2023/06/05 09:09:22;;;;;;;23.52;13.98;;;24.30;32.90;;;;;;5045110;28;20200;-90
2023/06/05 09:12:04;;;;;;;13.73;12.02;;;24.50;32.40;;;;;;5043417;28;20191;-91
2023/06/05 09:14:31;;;;;;;23.60;15.60;;;24.60;32.80;;;;;;5024725;28;20550;-89
2023/06/05 09:16:57;;;;;;;17.45;12.25;;;24.70;33.30;;;;;;5037191;28;20193;-89
2023/06/05 09:19:27;;;;;;;81.82;22.63;;;24.70;32.00;;;;;;5037140;28;20275;-88
2023/06/05 09:21:54;;;;;;;70.22;18.98;;;24.80;32.20;;;;;;5035597;28;20646;-90
2023/06/05 09:24:26;;;;;;;12.20;11.25;;;24.80;32.70;;;;;;5037052;28;20189;-89
2023/06/05 09:26:59;;;;;;;27.88;12.55;;;25.20;32.70;;;;;;5037040;28;20262;-90
2023/06/05 09:29:26;;;;;;;44.83;17.08;;;25.10;31.60;;;;;;5035902;28;20201;-88
2023/06/05 09:31:53;;;;;;;14.35;12.23;;;25.20;32.00;;;;;;5036403;28;20181;-85
2023/06/05 09:34:33;;;;;;;12.30;11.48;;;25.10;32.00;;;;;;5034714;28;20188;-89
2023/06/05 09:37:01;;;;;;;12.10;11.07;;;25.40;31.80;;;;;;5023816;28;20755;-90
2023/06/05 09:39:28;;;;;;;11.57;10.90;;;25.60;31.30;;;;;;5021116;28;20254;-91
2023/06/05 09:41:56;;;;;;;11.75;11.18;;;25.70;30.70;;;;;;5022544;28;20252;-91
2023/06/05 09:44:22;;;;;;;12.32;11.32;;;25.60;31.30;;;;;;5000572;28;20280;-90
2023/06/05 09:46:54;;;;;;;17.40;15.60;;;25.70;31.70;;;;;;5022130;28;20243;-91
2023/06/05 09:49:24;;;;;;;13.80;12.82;;;26.00;31.90;;;;;;5026063;28;20227;-87
2023/06/05 09:51:50;;;;;;;14.05;12.77;;;26.10;31.80;;;;;;5005653;28;20184;-91
2023/06/05 09:54:16;;;;;;;13.18;12.38;;;26.20;30.70;;;;;;5025415;28;20343;-92
2023/06/05 09:56:50;;;;;;;13.88;12.98;;;26.30;30.90;;;;;;5024361;28;20197;-90
2023/06/05 09:59:21;;;;;;;14.63;13.63;;;26.60;30.50;;;;;;5026251;28;20189;-89
2023/06/05 10:01:50;;;;;;;15.05;13.68;;;26.50;31.20;;;;;;5022626;28;20204;-90
2023/06/05 10:04:18;;;;;;;13.18;12.57;;;26.60;30.90;;;;;;5006156;28;20284;-89
2023/06/05 10:06:44;;;;;;;14.98;13.98;;;26.70;30.90;;;;;;5004847;28;20565;-91
2023/06/05 10:09:11;;;;;;;13.90;13.10;;;26.70;31.40;;;;;;5024631;28;21095;-88
2023/06/05 10:11:40;;;;;;;13.95;13.15;;;26.80;30.80;;;;;;5004257;28;20199;-91
2023/06/05 10:14:08;;;;;;;13.60;12.90;;;26.60;31.80;;;;;;5027535;28;20210;-89
2023/06/05 10:16:34;;;;;;;14.95;14.05;;;26.90;30.60;;;;;;5025665;28;20228;-90
2023/06/05 10:19:00;;;;;;;15.77;15.00;;;26.80;31.80;;;;;;5024565;28;20326;-92
2023/06/05 10:21:26;;;;;;;16.42;15.55;;;26.90;32.50;;;;;;5031456;28;20217;-90
2023/06/05 10:23:57;;;;;;;16.80;15.80;;;27.00;33.10;;;;;;5028228;28;20312;-92
2023/06/05 10:27:08;;;;;;;16.63;15.73;;;27.30;32.40;;;;;;5025952;28;20217;-90
2023/06/05 10:29:52;;;;;;;17.48;16.40;;;27.70;32.30;;;;;;5029041;28;20201;-92
2023/06/05 10:32:32;;;;;;;18.05;17.00;;;27.90;32.00;;;;;;5027406;28;20192;-92
2023/06/05 10:35:36;;;;;;;16.65;15.95;;;27.90;31.50;;;;;;5023411;28;20263;-92
2023/06/05 10:38:20;;;;;;;18.02;17.13;;;28.10;31.60;;;;;;5005899;28;20212;-90
2023/06/05 10:40:55;;;;;;;19.10;17.60;;;27.90;32.40;;;;;;5023189;28;20189;-91
2023/06/05 10:43:27;;;;;;;18.52;17.63;;;28.10;32.80;;;;;;5023099;28;20225;-92
2023/06/05 10:45:53;;;;;;;18.48;17.52;;;28.10;33.20;;;;;;5028785;28;20192;-91
2023/06/05 10:48:19;;;;;;;18.17;17.20;;;28.30;32.30;;;;;;5010086;28;20216;-92
2023/06/05 10:50:45;;;;;;;17.45;16.42;;;28.50;31.70;;;;;;5025878;28;20544;-91
2023/06/05 10:53:47;;;;;;;18.95;17.58;;;28.40;32.90;;;;;;5029198;28;20782;-90
2023/06/05 10:56:50;;;;;;;17.98;16.98;;;28.40;32.40;;;;;;5007163;28;20220;-90
2023/06/05 10:59:17;;;;;;;18.83;17.95;;;28.30;32.70;;;;;;5025755;28;20200;-89
2023/06/05 11:01:43;;;;;;;19.13;17.67;;;28.50;31.80;;;;;;5027920;28;21133;-90
2023/06/05 11:04:09;;;;;;;45.40;21.77;;;29.00;30.50;;;;;;5029467;28;20189;-90
2023/06/05 11:06:37;;;;;;;16.88;15.68;;;29.20;30.20;;;;;;5023834;28;20232;-89
2023/06/05 11:09:15;;;;;;;17.63;16.63;;;29.50;29.80;;;;;;5027536;28;20255;-91
2023/06/05 11:12:01;;;;;;;19.02;18.13;;;29.60;29.80;;;;;;5010810;28;20193;-91
2023/06/05 11:14:50;;;;;;;24.95;21.27;;;30.00;29.90;;;;;;5029561;28;20195;-91
2023/06/05 11:20:31;;;;;;;22.05;21.05;;;30.50;29.00;;;;;;5019093;28;20193;-91
2023/06/05 11:23:27;;;;;;;22.73;21.58;;;30.60;27.60;;;;;;5029479;28;20535;-89
2023/06/05 11:25:56;;;;;;;21.88;20.88;;;30.40;27.20;;;;;;5026959;28;20658;-90
2023/06/05 11:28:38;;;;;;;25.30;23.92;;;30.60;26.90;;;;;;5025314;28;20400;-92
2023/06/05 11:31:04;;;;;;;27.27;25.73;;;30.70;26.50;;;;;;5024182;28;20199;-88
2023/06/05 11:33:30;;;;;;;28.00;26.23;;;31.00;25.60;;;;;;5025571;28;20193;-88
2023/06/05 11:36:00;;;;;;;24.65;23.33;;;31.40;24.60;;;;;;5024234;28;20346;-90
2023/06/05 11:38:26;;;;;;;24.27;22.98;;;31.40;24.70;;;;;;5024539;28;20192;-89
2023/06/05 11:40:53;;;;;;;23.92;22.92;;;31.40;23.90;;;;;;5027800;28;20189;-89
2023/06/05 11:43:20;;;;;;;26.00;24.98;;;31.20;24.80;;;;;;5030716;28;20231;-90
2023/06/05 11:45:50;;;;;;;24.77;23.77;;;31.00;25.10;;;;;;5007809;28;20556;-88
2023/06/05 11:48:15;;;;;;;25.88;24.58;;;31.30;24.80;;;;;;5027294;28;20213;-89
2023/06/05 11:51:05;;;;;;;28.08;26.02;;;31.70;24.10;;;;;;5029831;28;20715;-91
2023/06/05 11:53:32;;;;;;;50.33;30.15;;;31.50;24.50;;;;;;5031431;28;20204;-89
2023/06/05 11:58:37;;;;;;;30.10;24.58;;;32.20;24.60;;;;;;5025082;28;20567;-89
2023/06/05 12:01:06;;;;;;;55.40;29.52;;;32.50;24.70;;;;;;5008856;28;20188;-88
2023/06/05 12:03:32;;;;;;;29.38;26.23;;;32.50;24.40;;;;;;5026743;28;20635;-89
2023/06/05 12:05:58;;;;;;;69.30;29.65;;;32.70;23.20;;;;;;5024250;28;20207;-89
2023/06/05 12:08:34;;;;;;;24.05;22.13;;;32.30;23.10;;;;;;5024603;28;20221;-90
2023/06/05 12:11:01;;;;;;;23.70;22.10;;;32.10;23.10;;;;;;5027872;28;20184;-90
2023/06/05 12:13:48;;;;;;;22.70;21.60;;;31.80;23.50;;;;;;5028235;28;20185;-89
2023/06/05 12:16:15;;;;;;;23.42;21.90;;;31.90;23.40;;;;;;5027163;28;20192;-88
2023/06/05 12:18:41;;;;;;;23.13;21.95;;;32.00;22.90;;;;;;5025004;28;20280;-89
2023/06/05 12:21:06;;;;;;;23.83;22.63;;;32.10;23.00;;;;;;5025322;28;20284;-90
2023/06/05 12:23:32;;;;;;;23.88;22.55;;;32.50;22.60;;;;;;5027345;28;20224;-92
2023/06/05 12:26:03;;;;;;;25.20;24.20;;;32.70;21.80;;;;;;5021750;28;20208;-90
2023/06/05 12:28:30;;;;;;;24.95;23.95;;;32.90;21.70;;;;;;5018991;28;20284;-91
2023/06/05 12:30:56;;;;;;;118.47;45.15;;;32.90;21.90;;;;;;5020091;28;20554;-89
2023/06/05 12:33:25;;;;;;;136.77;50.20;;;33.40;21.90;;;;;;5020354;28;20188;-92
2023/06/05 12:36:06;;;;;;;26.25;24.63;;;32.90;22.20;;;;;;5016603;28;20216;-91
2023/06/05 12:38:42;;;;;;;27.85;26.15;;;33.00;22.20;;;;;;5015575;28;20189;-90
2023/06/05 12:41:08;;;;;;;30.80;28.55;;;33.40;20.90;;;;;;5026327;28;20196;-93
2023/06/05 12:43:35;;;;;;;27.15;26.05;;;33.10;21.70;;;;;;5028842;28;20188;-93
2023/06/05 12:46:01;;;;;;;27.63;26.08;;;33.30;20.80;;;;;;5023306;28;20185;-91
2023/06/05 12:48:31;;;;;;;29.25;26.58;;;32.80;22.00;;;;;;5026734;28;20657;-91
2023/06/05 12:50:58;;;;;;;26.65;25.27;;;33.30;21.60;;;;;;5026683;28;20188;-91